sensor_id;sensor_type;location;lat;lon;timestamp;pressure;altitude;pressure_sealevel;temperature;humidity
39593;BME280;25286;48.870;9.084;2022-09-16T00:00:05;97463.22;;;14.31;nan
39593;BME280;25286;48.870;9.084;2022-09-16T00:02:32;97466.53;;;14.23;nan
39593;BME280;25286;48.870;9.084;2022-09-16T00:04:57;97466.53;;;14.23;nan
39593;BME280;25286;48.870;9.084;2022-09-16T00:07:23;97463.25;;;14.11;nan
39593;BME280;25286;48.870;9.084;2022-09-16T00:09:48;97460.75;;;14.30;nan
39593;BME280;25286;48.870;9.084;2022-09-16T00:12:14;97464.84;;;14.37;nan
39593;BME280;25286;48.870;9.084;2022-09-16T00:14:42;97464.31;;;14.35;nan
39593;BME280;25286;48.870;9.084;2022-09-16T00:17:17;97458.22;;;14.33;nan
39593;BME280;25286;48.870;9.084;2022-09-16T00:19:42;97457.44;;;14.22;nan
39593;BME280;25286;48.870;9.084;2022-09-16T00:22:17;97453.31;;;14.25;nan
39593;BME280;25286;48.870;9.084;2022-09-16T00:24:42;97456.09;;;14.10;nan
39593;BME280;25286;48.870;9.084;2022-09-16T00:27:08;97457.50;;;14.07;nan
39593;BME280;25286;48.870;9.084;2022-09-16T00:29:36;97455.53;;;14.18;nan
39593;BME280;25286;48.870;9.084;2022-09-16T00:32:07;97460.97;;;14.33;nan
39593;BME280;25286;48.870;9.084;2022-09-16T00:34:33;97458.19;;;14.38;nan
39593;BME280;25286;48.870;9.084;2022-09-16T00:36:59;97453.56;;;14.23;nan
39593;BME280;25286;48.870;9.084;2022-09-16T00:39:31;97459.66;;;14.26;nan
39593;BME280;25286;48.870;9.084;2022-09-16T00:42:03;97452.56;;;13.99;nan
39593;BME280;25286;48.870;9.084;2022-09-16T00:49:52;97445.84;;;14.31;nan
39593;BME280;25286;48.870;9.084;2022-09-16T00:52:21;97450.53;;;14.30;nan
39593;BME280;25286;48.870;9.084;2022-09-16T00:54:47;97454.84;;;14.46;nan
39593;BME280;25286;48.870;9.084;2022-09-16T00:57:13;97459.03;;;14.34;nan
39593;BME280;25286;48.870;9.084;2022-09-16T00:59:48;97457.75;;;14.21;nan
39593;BME280;25286;48.870;9.084;2022-09-16T01:02:19;97458.28;;;14.23;nan
39593;BME280;25286;48.870;9.084;2022-09-16T01:04:59;97457.75;;;14.16;nan
39593;BME280;25286;48.870;9.084;2022-09-16T01:07:36;97462.16;;;14.17;nan
39593;BME280;25286;48.870;9.084;2022-09-16T01:10:04;97466.56;;;14.18;nan
39593;BME280;25286;48.870;9.084;2022-09-16T01:12:30;97471.56;;;14.16;nan
39593;BME280;25286;48.870;9.084;2022-09-16T01:14:57;97462.19;;;14.07;nan
39593;BME280;25286;48.870;9.084;2022-09-16T01:36:37;97458.94;;;13.74;nan
39593;BME280;25286;48.870;9.084;2022-09-16T01:44:24;97457.59;;;13.46;nan
39593;BME280;25286;48.870;9.084;2022-09-16T01:47:17;97467.81;;;13.35;nan
39593;BME280;25286;48.870;9.084;2022-09-16T01:49:53;97472.75;;;13.28;nan
39593;BME280;25286;48.870;9.084;2022-09-16T01:52:43;97471.69;;;13.24;nan
39593;BME280;25286;48.870;9.084;2022-09-16T01:55:17;97463.34;;;13.19;nan
39593;BME280;25286;48.870;9.084;2022-09-16T02:00:38;97463.34;;;13.19;nan
39593;BME280;25286;48.870;9.084;2022-09-16T02:03:18;97463.66;;;13.22;nan
39593;BME280;25286;48.870;9.084;2022-09-16T02:05:58;97468.91;;;13.29;nan
39593;BME280;25286;48.870;9.084;2022-09-16T02:08:38;97457.03;;;13.23;nan
39593;BME280;25286;48.870;9.084;2022-09-16T02:11:06;97457.00;;;13.18;nan
39593;BME280;25286;48.870;9.084;2022-09-16T02:13:41;97438.03;;;13.17;nan
39593;BME280;25286;48.870;9.084;2022-09-16T02:16:14;97438.84;;;13.17;nan
39593;BME280;25286;48.870;9.084;2022-09-16T02:18:42;97448.75;;;13.08;nan
39593;BME280;25286;48.870;9.084;2022-09-16T02:21:12;97455.97;;;13.25;nan
39593;BME280;25286;48.870;9.084;2022-09-16T02:23:42;97445.75;;;13.40;nan
39593;BME280;25286;48.870;9.084;2022-09-16T02:26:10;97455.69;;;13.31;nan
39593;BME280;25286;48.870;9.084;2022-09-16T02:28:40;97455.66;;;13.11;nan
39593;BME280;25286;48.870;9.084;2022-09-16T02:31:08;97449.84;;;13.02;nan
39593;BME280;25286;48.870;9.084;2022-09-16T02:33:37;97460.06;;;13.07;nan
39593;BME280;25286;48.870;9.084;2022-09-16T02:36:06;97455.66;;;13.11;nan
39593;BME280;25286;48.870;9.084;2022-09-16T02:38:36;97456.75;;;13.20;nan
39593;BME280;25286;48.870;9.084;2022-09-16T02:41:05;97457.91;;;13.34;nan
39593;BME280;25286;48.870;9.084;2022-09-16T02:43:31;97456.25;;;13.38;nan
39593;BME280;25286;48.870;9.084;2022-09-16T02:51:56;97451.81;;;13.27;nan
39593;BME280;25286;48.870;9.084;2022-09-16T02:57:11;97448.50;;;13.20;nan
39593;BME280;25286;48.870;9.084;2022-09-16T02:59:37;97437.72;;;13.13;nan
39593;BME280;25286;48.870;9.084;2022-09-16T03:02:03;97444.63;;;13.11;nan
39593;BME280;25286;48.870;9.084;2022-09-16T03:04:29;97448.25;;;13.27;nan
39593;BME280;25286;48.870;9.084;2022-09-16T03:06:55;97449.34;;;13.26;nan
39593;BME280;25286;48.870;9.084;2022-09-16T03:09:21;97446.31;;;13.32;nan
39593;BME280;25286;48.870;9.084;2022-09-16T03:17:17;97441.34;;;13.55;nan
39593;BME280;25286;48.870;9.084;2022-09-16T03:20:05;97441.31;;;13.60;nan
39593;BME280;25286;48.870;9.084;2022-09-16T03:25:44;97446.00;;;13.69;nan
39593;BME280;25286;48.870;9.084;2022-09-16T03:28:19;97444.66;;;13.52;nan
39593;BME280;25286;48.870;9.084;2022-09-16T03:31:05;97442.16;;;13.45;nan
39593;BME280;25286;48.870;9.084;2022-09-16T03:36:13;97437.47;;;13.61;nan
39593;BME280;25286;48.870;9.084;2022-09-16T03:38:40;97440.75;;;13.68;nan
39593;BME280;25286;48.870;9.084;2022-09-16T03:41:09;97432.78;;;13.61;nan
39593;BME280;25286;48.870;9.084;2022-09-16T03:43:35;97445.16;;;13.79;nan
39593;BME280;25286;48.870;9.084;2022-09-16T03:46:01;97437.44;;;13.81;nan
39593;BME280;25286;48.870;9.084;2022-09-16T03:48:27;97435.22;;;13.78;nan
39593;BME280;25286;48.870;9.084;2022-09-16T03:50:52;97428.06;;;13.72;nan
39593;BME280;25286;48.870;9.084;2022-09-16T03:53:18;97435.53;;;13.66;nan
39593;BME280;25286;48.870;9.084;2022-09-16T03:55:44;97429.47;;;13.64;nan
39593;BME280;25286;48.870;9.084;2022-09-16T03:58:10;97430.56;;;13.68;nan
39593;BME280;25286;48.870;9.084;2022-09-16T04:00:35;97433.31;;;13.68;nan
39593;BME280;25286;48.870;9.084;2022-09-16T04:03:01;97433.59;;;13.72;nan
39593;BME280;25286;48.870;9.084;2022-09-16T04:05:27;97430.28;;;13.65;nan
39593;BME280;25286;48.870;9.084;2022-09-16T04:07:53;97427.53;;;13.75;nan
39593;BME280;25286;48.870;9.084;2022-09-16T04:10:18;97425.59;;;13.70;nan
39593;BME280;25286;48.870;9.084;2022-09-16T04:12:44;97426.69;;;13.64;nan
39593;BME280;25286;48.870;9.084;2022-09-16T04:15:10;97417.88;;;13.72;nan
39593;BME280;25286;48.870;9.084;2022-09-16T04:17:36;97420.06;;;13.81;nan
39593;BME280;25286;48.870;9.084;2022-09-16T04:20:03;97411.22;;;13.79;nan
39593;BME280;25286;48.870;9.084;2022-09-16T04:22:29;97411.56;;;13.67;nan
39593;BME280;25286;48.870;9.084;2022-09-16T04:24:55;97415.94;;;13.73;nan
39593;BME280;25286;48.870;9.084;2022-09-16T04:27:21;97417.31;;;13.76;nan
39593;BME280;25286;48.870;9.084;2022-09-16T04:29:47;97425.03;;;13.84;nan
39593;BME280;25286;48.870;9.084;2022-09-16T04:32:13;97417.34;;;13.60;nan
39593;BME280;25286;48.870;9.084;2022-09-16T04:34:38;97417.09;;;13.41;nan
39593;BME280;25286;48.870;9.084;2022-09-16T04:37:04;97415.16;;;13.42;nan
39593;BME280;25286;48.870;9.084;2022-09-16T04:39:30;97415.75;;;13.34;nan
39593;BME280;25286;48.870;9.084;2022-09-16T04:41:56;97409.66;;;13.47;nan
39593;BME280;25286;48.870;9.084;2022-09-16T04:44:21;97411.03;;;13.39;nan
39593;BME280;25286;48.870;9.084;2022-09-16T04:46:47;97411.06;;;13.29;nan
39593;BME280;25286;48.870;9.084;2022-09-16T04:49:12;97422.09;;;13.24;nan
39593;BME280;25286;48.870;9.084;2022-09-16T04:51:38;97416.00;;;13.27;nan
39593;BME280;25286;48.870;9.084;2022-09-16T04:54:04;97423.13;;;13.18;nan
39593;BME280;25286;48.870;9.084;2022-09-16T04:56:31;97417.09;;;13.16;nan
39593;BME280;25286;48.870;9.084;2022-09-16T04:59:02;97420.66;;;13.11;nan
39593;BME280;25286;48.870;9.084;2022-09-16T05:01:30;97424.78;;;12.98;nan
39593;BME280;25286;48.870;9.084;2022-09-16T05:03:58;97433.06;;;12.93;nan
39593;BME280;25286;48.870;9.084;2022-09-16T05:06:34;97438.00;;;12.96;nan
39593;BME280;25286;48.870;9.084;2022-09-16T05:09:00;97425.06;;;12.97;nan
39593;BME280;25286;48.870;9.084;2022-09-16T05:11:28;97423.97;;;12.93;nan
39593;BME280;25286;48.870;9.084;2022-09-16T05:14:01;97423.97;;;12.98;nan
39593;BME280;25286;48.870;9.084;2022-09-16T05:16:27;97429.47;;;13.03;nan
39593;BME280;25286;48.870;9.084;2022-09-16T05:18:55;97421.47;;;12.96;nan
39593;BME280;25286;48.870;9.084;2022-09-16T05:21:22;97420.38;;;12.92;nan
39593;BME280;25286;48.870;9.084;2022-09-16T05:23:48;97414.34;;;13.06;nan
39593;BME280;25286;48.870;9.084;2022-09-16T05:26:23;97420.38;;;12.97;nan
39593;BME280;25286;48.870;9.084;2022-09-16T05:28:49;97417.63;;;12.97;nan
39593;BME280;25286;48.870;9.084;2022-09-16T05:31:25;97412.13;;;13.03;nan
39593;BME280;25286;48.870;9.084;2022-09-16T05:36:24;97415.69;;;12.93;nan
39593;BME280;25286;48.870;9.084;2022-09-16T05:38:50;97417.06;;;12.80;nan
39593;BME280;25286;48.870;9.084;2022-09-16T05:41:15;97425.03;;;12.82;nan
39593;BME280;25286;48.870;9.084;2022-09-16T05:43:41;97423.09;;;12.72;nan
39593;BME280;25286;48.870;9.084;2022-09-16T05:46:07;97430.25;;;12.78;nan
39593;BME280;25286;48.870;9.084;2022-09-16T05:48:33;97426.97;;;12.76;nan
39593;BME280;25286;48.870;9.084;2022-09-16T05:51:01;97433.81;;;12.73;nan
39593;BME280;25286;48.870;9.084;2022-09-16T05:53:28;97428.06;;;12.80;nan
39593;BME280;25286;48.870;9.084;2022-09-16T05:58:21;97430.81;;;12.80;nan
39593;BME280;25286;48.870;9.084;2022-09-16T06:00:47;97428.06;;;12.85;nan
39593;BME280;25286;48.870;9.084;2022-09-16T06:03:12;97429.47;;;12.98;nan
39593;BME280;25286;48.870;9.084;2022-09-16T06:05:38;97433.06;;;12.93;nan
39593;BME280;25286;48.870;9.084;2022-09-16T06:08:04;97434.69;;;12.94;nan
39593;BME280;25286;48.870;9.084;2022-09-16T06:10:29;97432.75;;;13.00;nan
39593;BME280;25286;48.870;9.084;2022-09-16T06:12:55;97429.47;;;13.03;nan
39593;BME280;25286;48.870;9.084;2022-09-16T06:15:21;97439.38;;;13.04;nan
39593;BME280;25286;48.870;9.084;2022-09-16T06:17:46;97435.56;;;13.15;nan
39593;BME280;25286;48.870;9.084;2022-09-16T06:20:12;97450.69;;;12.97;nan
39593;BME280;25286;48.870;9.084;2022-09-16T06:22:39;97459.19;;;12.96;nan
39593;BME280;25286;48.870;9.084;2022-09-16T06:25:05;97446.81;;;12.93;nan
39593;BME280;25286;48.870;9.084;2022-09-16T06:27:32;97450.38;;;12.84;nan
39593;BME280;25286;48.870;9.084;2022-09-16T06:29:57;97452.31;;;12.93;nan
39593;BME280;25286;48.870;9.084;2022-09-16T06:32:23;97446.53;;;12.90;nan
39593;BME280;25286;48.870;9.084;2022-09-16T06:34:49;97451.22;;;12.94;nan
39593;BME280;25286;48.870;9.084;2022-09-16T06:37:15;97456.13;;;12.77;nan
39593;BME280;25286;48.870;9.084;2022-09-16T06:39:41;97458.59;;;12.63;nan
39593;BME280;25286;48.870;9.084;2022-09-16T06:42:07;97450.59;;;12.62;nan
39593;BME280;25286;48.870;9.084;2022-09-16T06:44:33;97455.31;;;12.71;nan
39593;BME280;25286;48.870;9.084;2022-09-16T06:46:59;97464.25;;;12.26;nan
39593;BME280;25286;48.870;9.084;2022-09-16T06:49:24;97457.94;;;12.36;nan
39593;BME280;25286;48.870;9.084;2022-09-16T06:51:50;97454.16;;;12.52;nan
39593;BME280;25286;48.870;9.084;2022-09-16T06:54:16;97452.75;;;12.44;nan
39593;BME280;25286;48.870;9.084;2022-09-16T06:56:42;97443.38;;;12.45;nan
39593;BME280;25286;48.870;9.084;2022-09-16T06:59:09;97458.53;;;12.48;nan
39593;BME280;25286;48.870;9.084;2022-09-16T07:01:35;97460.88;;;12.14;nan
39593;BME280;25286;48.870;9.084;2022-09-16T07:04:04;97472.94;;;12.08;nan
39593;BME280;25286;48.870;9.084;2022-09-16T07:06:30;97478.97;;;12.05;nan
39593;BME280;25286;48.870;9.084;2022-09-16T07:08:57;97471.59;;;12.05;nan
39593;BME280;25286;48.870;9.084;2022-09-16T07:11:23;97475.19;;;12.16;nan
39593;BME280;25286;48.870;9.084;2022-09-16T07:13:49;97458.91;;;12.04;nan
39593;BME280;25286;48.870;9.084;2022-09-16T07:16:18;97464.19;;;12.11;nan
39593;BME280;25286;48.870;9.084;2022-09-16T07:18:44;97465.31;;;12.20;nan
39593;BME280;25286;48.870;9.084;2022-09-16T07:21:14;97463.94;;;12.23;nan
39593;BME280;25286;48.870;9.084;2022-09-16T07:23:41;97462.28;;;12.16;nan
39593;BME280;25286;48.870;9.084;2022-09-16T07:28:35;97456.44;;;12.08;nan
39593;BME280;25286;48.870;9.084;2022-09-16T07:31:02;97459.00;;;12.25;nan
39593;BME280;25286;48.870;9.084;2022-09-16T07:33:29;97459.31;;;12.28;nan
39593;BME280;25286;48.870;9.084;2022-09-16T07:35:58;97457.53;;;12.02;nan
39593;BME280;25286;48.870;9.084;2022-09-16T07:38:25;97472.38;;;12.01;nan
39593;BME280;25286;48.870;9.084;2022-09-16T07:40:51;97468.31;;;12.13;nan
39593;BME280;25286;48.870;9.084;2022-09-16T07:43:16;97481.88;;;12.35;nan
39593;BME280;25286;48.870;9.084;2022-09-16T07:45:42;97483.00;;;12.39;nan
39593;BME280;25286;48.870;9.084;2022-09-16T07:48:08;97478.66;;;12.54;nan
39593;BME280;25286;48.870;9.084;2022-09-16T07:50:34;97471.28;;;12.69;nan
39593;BME280;25286;48.870;9.084;2022-09-16T07:52:59;97467.66;;;12.64;nan
39593;BME280;25286;48.870;9.084;2022-09-16T07:55:25;97467.72;;;12.74;nan
39593;BME280;25286;48.870;9.084;2022-09-16T07:57:52;97471.03;;;12.86;nan
39593;BME280;25286;48.870;9.084;2022-09-16T08:00:18;97476.78;;;12.75;nan
39593;BME280;25286;48.870;9.084;2022-09-16T08:02:43;97476.72;;;12.59;nan
39593;BME280;25286;48.870;9.084;2022-09-16T08:05:09;97476.53;;;12.86;nan
39593;BME280;25286;48.870;9.084;2022-09-16T08:07:35;97475.19;;;12.94;nan
39593;BME280;25286;48.870;9.084;2022-09-16T08:10:01;97481.53;;;13.10;nan
39593;BME280;25286;48.870;9.084;2022-09-16T08:12:27;97491.25;;;12.39;nan
39593;BME280;25286;48.870;9.084;2022-09-16T08:14:57;97487.50;;;12.66;nan
39593;BME280;25286;48.870;9.084;2022-09-16T08:17:24;97492.59;;;12.32;nan
39593;BME280;25286;48.870;9.084;2022-09-16T08:19:50;97500.16;;;12.62;nan
39593;BME280;25286;48.870;9.084;2022-09-16T08:22:15;97497.50;;;12.92;nan
39593;BME280;25286;48.870;9.084;2022-09-16T08:24:41;97494.47;;;13.09;nan
39593;BME280;25286;48.870;9.084;2022-09-16T08:27:07;97496.94;;;13.01;nan
39593;BME280;25286;48.870;9.084;2022-09-16T08:29:32;97496.75;;;12.34;nan
39593;BME280;25286;48.870;9.084;2022-09-16T08:31:58;97491.38;;;12.75;nan
39593;BME280;25286;48.870;9.084;2022-09-16T08:34:24;97491.72;;;13.09;nan
39593;BME280;25286;48.870;9.084;2022-09-16T08:36:50;97494.22;;;13.21;nan
39593;BME280;25286;48.870;9.084;2022-09-16T08:39:15;97492.31;;;13.42;nan
39593;BME280;25286;48.870;9.084;2022-09-16T08:42:06;97500.72;;;12.69;nan
39593;BME280;25286;48.870;9.084;2022-09-16T08:45:06;97495.81;;;12.91;nan
39593;BME280;25286;48.870;9.084;2022-09-16T08:50:30;97503.09;;;13.43;nan
39593;BME280;25286;48.870;9.084;2022-09-16T08:52:59;97504.44;;;13.41;nan
39593;BME280;25286;48.870;9.084;2022-09-16T08:55:34;97501.41;;;13.37;nan
39593;BME280;25286;48.870;9.084;2022-09-16T08:58:22;97497.56;;;13.48;nan
39593;BME280;25286;48.870;9.084;2022-09-16T09:00:56;97501.69;;;13.46;nan
39593;BME280;25286;48.870;9.084;2022-09-16T09:03:40;97508.84;;;13.37;nan
39593;BME280;25286;48.870;9.084;2022-09-16T09:11:57;97506.94;;;13.32;nan
39593;BME280;25286;48.870;9.084;2022-09-16T09:20:03;97506.31;;;13.05;nan
39593;BME280;25286;48.870;9.084;2022-09-16T09:25:31;97500.22;;;12.87;nan
39593;BME280;25286;48.870;9.084;2022-09-16T09:30:26;97485.38;;;13.09;nan
39593;BME280;25286;48.870;9.084;2022-09-16T09:35:57;97496.19;;;13.51;nan
39593;BME280;25286;48.870;9.084;2022-09-16T09:41:13;97503.31;;;13.21;nan
39593;BME280;25286;48.870;9.084;2022-09-16T09:46:47;97501.16;;;13.34;nan
39593;BME280;25286;48.870;9.084;2022-09-16T09:49:30;97503.63;;;13.56;nan
39593;BME280;25286;48.870;9.084;2022-09-16T09:52:13;97504.16;;;13.37;nan
39593;BME280;25286;48.870;9.084;2022-09-16T09:54:44;97500.88;;;13.56;nan
39593;BME280;25286;48.870;9.084;2022-09-16T09:57:31;97507.22;;;13.56;nan
39593;BME280;25286;48.870;9.084;2022-09-16T10:00:17;97501.13;;;13.64;nan
39593;BME280;25286;48.870;9.084;2022-09-16T10:02:44;97497.56;;;13.84;nan
39593;BME280;25286;48.870;9.084;2022-09-16T10:07:40;97499.22;;;13.55;nan
39593;BME280;25286;48.870;9.084;2022-09-16T10:10:18;97497.56;;;13.23;nan
39593;BME280;25286;48.870;9.084;2022-09-16T10:12:45;97501.69;;;13.46;nan
39593;BME280;25286;48.870;9.084;2022-09-16T10:15:37;97494.53;;;13.55;nan
39593;BME280;25286;48.870;9.084;2022-09-16T10:18:10;97494.25;;;13.72;nan
39593;BME280;25286;48.870;9.084;2022-09-16T10:20:37;97505.00;;;13.63;nan
39593;BME280;25286;48.870;9.084;2022-09-16T10:23:05;97501.97;;;13.85;nan
39593;BME280;25286;48.870;9.084;2022-09-16T10:25:32;97501.66;;;13.87;nan
39593;BME280;25286;48.870;9.084;2022-09-16T10:28:03;97501.97;;;13.75;nan
39593;BME280;25286;48.870;9.084;2022-09-16T10:30:32;97506.41;;;13.66;nan
39593;BME280;25286;48.870;9.084;2022-09-16T10:33:11;97509.16;;;13.61;nan
39593;BME280;25286;48.870;9.084;2022-09-16T10:35:39;97504.94;;;13.07;nan
39593;BME280;25286;48.870;9.084;2022-09-16T10:40:33;97488.50;;;13.43;nan
39593;BME280;25286;48.870;9.084;2022-09-16T10:43:05;97489.00;;;13.55;nan
39593;BME280;25286;48.870;9.084;2022-09-16T10:45:35;97489.84;;;13.56;nan
39593;BME280;25286;48.870;9.084;2022-09-16T10:48:15;97486.81;;;13.62;nan
39593;BME280;25286;48.870;9.084;2022-09-16T10:50:56;97488.19;;;13.65;nan
39593;BME280;25286;48.870;9.084;2022-09-16T10:53:36;97492.31;;;13.78;nan
39593;BME280;25286;48.870;9.084;2022-09-16T10:56:04;97499.78;;;13.57;nan
39593;BME280;25286;48.870;9.084;2022-09-16T10:58:31;97500.03;;;13.76;nan
39593;BME280;25286;48.870;9.084;2022-09-16T11:03:41;97498.69;;;13.58;nan
39593;BME280;25286;48.870;9.084;2022-09-16T11:06:23;97491.50;;;13.41;nan
39593;BME280;25286;48.870;9.084;2022-09-16T11:12:04;97503.38;;;13.57;nan
39593;BME280;25286;48.870;9.084;2022-09-16T11:19:57;97514.66;;;13.61;nan
39593;BME280;25286;48.870;9.084;2022-09-16T11:27:34;97525.41;;;13.47;nan
39593;BME280;25286;48.870;9.084;2022-09-16T11:30:14;97525.38;;;13.32;nan
39593;BME280;25286;48.870;9.084;2022-09-16T11:38:27;97517.41;;;13.45;nan
39593;BME280;25286;48.870;9.084;2022-09-16T11:41:30;97507.22;;;13.36;nan
39593;BME280;25286;48.870;9.084;2022-09-16T12:01:48;97507.50;;;13.55;nan
39593;BME280;25286;48.870;9.084;2022-09-16T12:06:47;97491.31;;;14.54;nan
39593;BME280;25286;48.870;9.084;2022-09-16T12:09:16;97488.56;;;14.43;nan
39593;BME280;25286;48.870;9.084;2022-09-16T12:11:45;97495.22;;;14.32;nan
39593;BME280;25286;48.870;9.084;2022-09-16T12:14:17;97491.94;;;14.30;nan
39593;BME280;25286;48.870;9.084;2022-09-16T12:16:50;97484.88;;;14.68;nan
39593;BME280;25286;48.870;9.084;2022-09-16T12:19:21;97487.56;;;14.84;nan
39593;BME280;25286;48.870;9.084;2022-09-16T12:21:50;97483.03;;;14.98;nan
39593;BME280;25286;48.870;9.084;2022-09-16T12:24:20;97483.28;;;15.07;nan
39593;BME280;25286;48.870;9.084;2022-09-16T12:27:10;97487.56;;;14.84;nan
39593;BME280;25286;48.870;9.084;2022-09-16T12:29:39;97481.38;;;15.02;nan
39593;BME280;25286;48.870;9.084;2022-09-16T12:32:13;97482.28;;;14.87;nan
39593;BME280;25286;48.870;9.084;2022-09-16T12:34:45;97476.38;;;15.43;nan
39593;BME280;25286;48.870;9.084;2022-09-16T12:39:55;97476.97;;;15.40;nan
39593;BME280;25286;48.870;9.084;2022-09-16T12:45:07;97485.03;;;16.00;nan
39593;BME280;25286;48.870;9.084;2022-09-16T12:50:27;97469.16;;;15.13;nan
39593;BME280;25286;48.870;9.084;2022-09-16T12:55:50;97470.53;;;15.50;nan
39593;BME280;25286;48.870;9.084;2022-09-16T13:03:28;97459.66;;;16.41;nan
39593;BME280;25286;48.870;9.084;2022-09-16T13:05:55;97471.06;;;16.58;nan
39593;BME280;25286;48.870;9.084;2022-09-16T13:08:28;97465.75;;;16.62;nan
39593;BME280;25286;48.870;9.084;2022-09-16T13:11:05;97464.97;;;15.84;nan
39593;BME280;25286;48.870;9.084;2022-09-16T13:13:39;97450.34;;;16.08;nan
39593;BME280;25286;48.870;9.084;2022-09-16T13:16:07;97444.38;;;16.43;nan
39593;BME280;25286;48.870;9.084;2022-09-16T13:18:48;97449.56;;;16.26;nan
39593;BME280;25286;48.870;9.084;2022-09-16T13:21:24;97437.53;;;16.60;nan
39593;BME280;25286;48.870;9.084;2022-09-16T13:24:16;97424.03;;;17.15;nan
39593;BME280;25286;48.870;9.084;2022-09-16T13:26:44;97442.69;;;15.99;nan
39593;BME280;25286;48.870;9.084;2022-09-16T13:31:53;97444.44;;;16.38;nan
39593;BME280;25286;48.870;9.084;2022-09-16T13:34:19;97436.69;;;16.16;nan
39593;BME280;25286;48.870;9.084;2022-09-16T13:36:46;97433.19;;;16.30;nan
39593;BME280;25286;48.870;9.084;2022-09-16T13:39:13;97429.50;;;15.91;nan
39593;BME280;25286;48.870;9.084;2022-09-16T13:41:44;97433.78;;;15.79;nan
39593;BME280;25286;48.870;9.084;2022-09-16T13:44:39;97429.75;;;16.19;nan
39593;BME280;25286;48.870;9.084;2022-09-16T13:49:54;97437.97;;;16.00;nan
39593;BME280;25286;48.870;9.084;2022-09-16T13:52:31;97434.97;;;16.20;nan
39593;BME280;25286;48.870;9.084;2022-09-16T13:54:59;97435.22;;;16.24;nan
39593;BME280;25286;48.870;9.084;2022-09-16T14:00:09;97436.09;;;15.95;nan
39593;BME280;25286;48.870;9.084;2022-09-16T14:03:31;97423.16;;;16.58;nan
39593;BME280;25286;48.870;9.084;2022-09-16T14:08:35;97432.50;;;16.19;nan
39593;BME280;25286;48.870;9.084;2022-09-16T14:11:09;97421.78;;;16.12;nan
39593;BME280;25286;48.870;9.084;2022-09-16T14:14:21;97417.97;;;16.32;nan
39593;BME280;25286;48.870;9.084;2022-09-16T14:16:51;97418.91;;;16.22;nan
39593;BME280;25286;48.870;9.084;2022-09-16T14:19:25;97426.72;;;16.39;nan
39593;BME280;25286;48.870;9.084;2022-09-16T14:22:04;97420.56;;;15.70;nan
39593;BME280;25286;48.870;9.084;2022-09-16T14:24:36;97421.59;;;16.27;nan
39593;BME280;25286;48.870;9.084;2022-09-16T14:27:16;97417.22;;;16.45;nan
39593;BME280;25286;48.870;9.084;2022-09-16T14:30:04;97405.69;;;16.38;nan
39593;BME280;25286;48.870;9.084;2022-09-16T14:32:32;97416.06;;;15.80;nan
39593;BME280;25286;48.870;9.084;2022-09-16T14:35:00;97404.78;;;16.00;nan
39593;BME280;25286;48.870;9.084;2022-09-16T14:37:29;97413.47;;;15.88;nan
39593;BME280;25286;48.870;9.084;2022-09-16T14:40:10;97414.31;;;16.13;nan
39593;BME280;25286;48.870;9.084;2022-09-16T14:42:38;97416.53;;;16.11;nan
39593;BME280;25286;48.870;9.084;2022-09-16T14:45:18;97427.69;;;16.06;nan
39593;BME280;25286;48.870;9.084;2022-09-16T14:47:47;97422.91;;;15.87;nan
39593;BME280;25286;48.870;9.084;2022-09-16T14:50:31;97426.78;;;16.34;nan
39593;BME280;25286;48.870;9.084;2022-09-16T14:53:06;97417.16;;;16.50;nan
39593;BME280;25286;48.870;9.084;2022-09-16T14:55:47;97421.72;;;16.41;nan
39593;BME280;25286;48.870;9.084;2022-09-16T14:58:13;97428.97;;;16.13;nan
39593;BME280;25286;48.870;9.084;2022-09-16T15:00:46;97432.22;;;15.96;nan
39593;BME280;25286;48.870;9.084;2022-09-16T15:03:19;97428.13;;;15.89;nan
39593;BME280;25286;48.870;9.084;2022-09-16T15:05:48;97420.56;;;15.99;nan
39593;BME280;25286;48.870;9.084;2022-09-16T15:10:53;97420.75;;;15.79;nan
39593;BME280;25286;48.870;9.084;2022-09-16T15:13:26;97419.00;;;15.88;nan
39593;BME280;25286;48.870;9.084;2022-09-16T15:16:19;97421.25;;;15.86;nan
39593;BME280;25286;48.870;9.084;2022-09-16T15:18:54;97420.38;;;15.91;nan
39593;BME280;25286;48.870;9.084;2022-09-16T15:21:25;97421.56;;;15.50;nan
39593;BME280;25286;48.870;9.084;2022-09-16T15:23:54;97418.94;;;15.69;nan
39593;BME280;25286;48.870;9.084;2022-09-16T15:26:23;97416.56;;;15.52;nan
39593;BME280;25286;48.870;9.084;2022-09-16T15:31:39;97411.03;;;15.52;nan
39593;BME280;25286;48.870;9.084;2022-09-16T15:34:22;97412.47;;;15.50;nan
39593;BME280;25286;48.870;9.084;2022-09-16T15:36:57;97417.66;;;15.86;nan
39593;BME280;25286;48.870;9.084;2022-09-16T15:39:34;97417.09;;;16.56;nan
39593;BME280;25286;48.870;9.084;2022-09-16T15:42:10;97415.72;;;16.77;nan
39593;BME280;25286;48.870;9.084;2022-09-16T15:44:51;97417.69;;;15.51;nan
39593;BME280;25286;48.870;9.084;2022-09-16T15:47:36;97411.34;;;16.28;nan
39593;BME280;25286;48.870;9.084;2022-09-16T15:50:20;97412.28;;;16.42;nan
39593;BME280;25286;48.870;9.084;2022-09-16T15:53:03;97417.78;;;16.23;nan
39593;BME280;25286;48.870;9.084;2022-09-16T15:55:54;97416.66;;;16.00;nan
39593;BME280;25286;48.870;9.084;2022-09-16T16:01:32;97422.91;;;15.87;nan
39593;BME280;25286;48.870;9.084;2022-09-16T16:04:00;97415.53;;;15.43;nan
39593;BME280;25286;48.870;9.084;2022-09-16T16:12:13;97410.06;;;15.38;nan
39593;BME280;25286;48.870;9.084;2022-09-16T16:14:44;97414.97;;;15.81;nan
39593;BME280;25286;48.870;9.084;2022-09-16T16:17:15;97410.13;;;15.91;nan
39593;BME280;25286;48.870;9.084;2022-09-16T16:19:41;97403.91;;;15.81;nan
39593;BME280;25286;48.870;9.084;2022-09-16T16:22:11;97405.66;;;15.37;nan
39593;BME280;25286;48.870;9.084;2022-09-16T16:24:40;97412.81;;;15.38;nan
39593;BME280;25286;48.870;9.084;2022-09-16T16:27:13;97414.97;;;15.17;nan
39593;BME280;25286;48.870;9.084;2022-09-16T16:29:39;97406.66;;;15.17;nan
39593;BME280;25286;48.870;9.084;2022-09-16T16:32:12;97407.75;;;14.82;nan
39593;BME280;25286;48.870;9.084;2022-09-16T16:34:45;97413.22;;;14.87;nan
39593;BME280;25286;48.870;9.084;2022-09-16T16:37:13;97411.09;;;14.74;nan